UKBB/KBP METAR and TAF weather

Enter ICAO airport designator
Station Type Date Time Source
UKBB METAR 2021/02/27 22:00 UTC NOAA

UKBB 272200Z 32005MPS 9999 -RA OVC008 02/00 Q1020 R36R/290050 NOSIG


Station Type Date Time Source
UKBB Decoded METAR 2021/02/27 22:00 UTC NOAA

Boryspil, Ukraine (UKBB) 50-20N 030-58E 122M
Feb 27, 2021 - 05:00 PM EST / 2021.02.27 2200 UTC
Wind: from the NW (320 degrees) at 11 MPH (10 KT):0
Visibility: greater than 7 mile(s):0
Sky conditions: overcast
Weather: light rain
Temperature: 35 F (2 C)
Windchill: 26 F (-3 C):1
Dew Point: 32 F (0 C)
Relative Humidity: 86%
Pressure (altimeter): 30.12 in. Hg (1020 hPa)
ob: UKBB 272200Z 32005MPS 9999 -RA OVC008 02/00 Q1020 R36R/290050 NOSIG
cycle: 22

Station Type Date Time Source
UKBB TAF 2021/02/27 18:25 UTC NOAA

TAF COR UKBB 271707Z 2718/2818 31007G12MPS 9999 BKN010 TX03/2812Z TNM05/2805Z
TEMPO 2718/2720 33009G14MPS 1000 SHRASN BKN006 SCT015CB
TEMPO 2720/2806 32009G14MPS 1600 -SHSN BR BKN004 SCT015CB
BECMG 2815/2817 34003G08MPS

Example: see airport list